sensor_id;sensor_type;location;lat;lon;timestamp;P1;durP1;ratioP1;P2;durP2;ratioP2
51981;SDS011;37998;53.416;6.730;2023-02-15T00:02:18;73.22;;;17.27;;
51981;SDS011;37998;53.416;6.730;2023-02-15T00:04:45;56.38;;;16.92;;
51981;SDS011;37998;53.416;6.730;2023-02-15T00:07:14;82.18;;;17.02;;
51981;SDS011;37998;53.416;6.730;2023-02-15T00:09:41;30.98;;;16.17;;
51981;SDS011;37998;53.416;6.730;2023-02-15T00:12:06;27.13;;;16.50;;
51981;SDS011;37998;53.416;6.730;2023-02-15T00:14:33;37.00;;;16.85;;
51981;SDS011;37998;53.416;6.730;2023-02-15T00:16:59;56.03;;;16.55;;
51981;SDS011;37998;53.416;6.730;2023-02-15T00:19:25;80.85;;;17.48;;
51981;SDS011;37998;53.416;6.730;2023-02-15T00:21:51;58.50;;;17.38;;
51981;SDS011;37998;53.416;6.730;2023-02-15T00:24:17;101.78;;;18.17;;
51981;SDS011;37998;53.416;6.730;2023-02-15T00:26:44;83.10;;;17.02;;
51981;SDS011;37998;53.416;6.730;2023-02-15T00:29:11;92.95;;;16.10;;
51981;SDS011;37998;53.416;6.730;2023-02-15T00:31:38;97.05;;;16.25;;
51981;SDS011;37998;53.416;6.730;2023-02-15T00:34:04;108.57;;;17.83;;
51981;SDS011;37998;53.416;6.730;2023-02-15T00:36:38;98.43;;;16.45;;
51981;SDS011;37998;53.416;6.730;2023-02-15T00:39:04;98.35;;;17.75;;
51981;SDS011;37998;53.416;6.730;2023-02-15T00:41:30;143.80;;;18.98;;
51981;SDS011;37998;53.416;6.730;2023-02-15T00:43:56;103.70;;;18.20;;
51981;SDS011;37998;53.416;6.730;2023-02-15T00:46:22;118.63;;;16.73;;
51981;SDS011;37998;53.416;6.730;2023-02-15T00:48:48;88.20;;;17.35;;
51981;SDS011;37998;53.416;6.730;2023-02-15T00:51:13;29.90;;;16.60;;
51981;SDS011;37998;53.416;6.730;2023-02-15T00:53:39;40.03;;;15.35;;
51981;SDS011;37998;53.416;6.730;2023-02-15T00:56:05;154.73;;;18.75;;
51981;SDS011;37998;53.416;6.730;2023-02-15T00:58:30;45.53;;;15.60;;
51981;SDS011;37998;53.416;6.730;2023-02-15T01:01:01;70.07;;;14.95;;
51981;SDS011;37998;53.416;6.730;2023-02-15T01:05:55;221.90;;;17.60;;
51981;SDS011;37998;53.416;6.730;2023-02-15T01:08:20;158.07;;;17.58;;
51981;SDS011;37998;53.416;6.730;2023-02-15T01:10:46;145.48;;;18.45;;
51981;SDS011;37998;53.416;6.730;2023-02-15T01:13:12;258.85;;;18.65;;
51981;SDS011;37998;53.416;6.730;2023-02-15T01:15:39;178.10;;;20.13;;
51981;SDS011;37998;53.416;6.730;2023-02-15T01:18:05;267.42;;;20.65;;
51981;SDS011;37998;53.416;6.730;2023-02-15T01:20:33;196.38;;;19.58;;
51981;SDS011;37998;53.416;6.730;2023-02-15T01:23:00;92.47;;;18.15;;
51981;SDS011;37998;53.416;6.730;2023-02-15T01:25:25;202.55;;;20.02;;
51981;SDS011;37998;53.416;6.730;2023-02-15T01:27:51;151.35;;;18.80;;
51981;SDS011;37998;53.416;6.730;2023-02-15T01:30:17;148.60;;;19.63;;
51981;SDS011;37998;53.416;6.730;2023-02-15T01:32:42;163.88;;;18.38;;
51981;SDS011;37998;53.416;6.730;2023-02-15T01:35:09;128.07;;;17.50;;
51981;SDS011;37998;53.416;6.730;2023-02-15T01:37:35;217.23;;;18.20;;
51981;SDS011;37998;53.416;6.730;2023-02-15T01:40:02;169.40;;;20.60;;
51981;SDS011;37998;53.416;6.730;2023-02-15T01:42:30;162.43;;;18.23;;
51981;SDS011;37998;53.416;6.730;2023-02-15T01:44:57;263.75;;;22.92;;
51981;SDS011;37998;53.416;6.730;2023-02-15T01:47:43;163.83;;;19.13;;
51981;SDS011;37998;53.416;6.730;2023-02-15T01:50:21;147.07;;;20.30;;
51981;SDS011;37998;53.416;6.730;2023-02-15T01:55:57;121.43;;;18.05;;
51981;SDS011;37998;53.416;6.730;2023-02-15T01:58:26;162.45;;;19.27;;
51981;SDS011;37998;53.416;6.730;2023-02-15T02:00:54;108.47;;;17.67;;
51981;SDS011;37998;53.416;6.730;2023-02-15T02:03:24;104.05;;;17.30;;
51981;SDS011;37998;53.416;6.730;2023-02-15T02:06:07;151.60;;;17.10;;
51981;SDS011;37998;53.416;6.730;2023-02-15T02:08:33;143.27;;;17.27;;
51981;SDS011;37998;53.416;6.730;2023-02-15T02:10:59;89.20;;;16.70;;
51981;SDS011;37998;53.416;6.730;2023-02-15T02:13:24;133.18;;;16.98;;
51981;SDS011;37998;53.416;6.730;2023-02-15T02:15:56;113.32;;;16.30;;
51981;SDS011;37998;53.416;6.730;2023-02-15T02:21:10;147.65;;;16.27;;
51981;SDS011;37998;53.416;6.730;2023-02-15T02:32:24;86.55;;;13.48;;
51981;SDS011;37998;53.416;6.730;2023-02-15T02:38:04;51.28;;;12.80;;
51981;SDS011;37998;53.416;6.730;2023-02-15T02:43:32;75.90;;;13.18;;
51981;SDS011;37998;53.416;6.730;2023-02-15T02:46:26;54.58;;;13.68;;
51981;SDS011;37998;53.416;6.730;2023-02-15T02:48:55;72.18;;;13.80;;
51981;SDS011;37998;53.416;6.730;2023-02-15T02:51:21;102.22;;;14.10;;
51981;SDS011;37998;53.416;6.730;2023-02-15T02:53:48;54.92;;;13.85;;
51981;SDS011;37998;53.416;6.730;2023-02-15T02:56:21;95.10;;;13.02;;
51981;SDS011;37998;53.416;6.730;2023-02-15T02:59:07;36.63;;;12.38;;
51981;SDS011;37998;53.416;6.730;2023-02-15T03:01:39;28.30;;;12.27;;
51981;SDS011;37998;53.416;6.730;2023-02-15T03:04:11;37.67;;;13.60;;
51981;SDS011;37998;53.416;6.730;2023-02-15T03:06:46;62.78;;;13.55;;
51981;SDS011;37998;53.416;6.730;2023-02-15T03:09:28;137.25;;;15.40;;
51981;SDS011;37998;53.416;6.730;2023-02-15T03:12:00;98.85;;;13.85;;
51981;SDS011;37998;53.416;6.730;2023-02-15T03:14:28;90.40;;;14.93;;
51981;SDS011;37998;53.416;6.730;2023-02-15T03:16:54;90.25;;;14.45;;
51981;SDS011;37998;53.416;6.730;2023-02-15T03:19:22;111.15;;;15.07;;
51981;SDS011;37998;53.416;6.730;2023-02-15T03:22:00;86.75;;;15.93;;
51981;SDS011;37998;53.416;6.730;2023-02-15T03:25:19;129.73;;;16.70;;
51981;SDS011;37998;53.416;6.730;2023-02-15T03:30:01;183.70;;;17.35;;
51981;SDS011;37998;53.416;6.730;2023-02-15T03:32:29;61.97;;;15.02;;
51981;SDS011;37998;53.416;6.730;2023-02-15T03:34:57;65.70;;;16.20;;
51981;SDS011;37998;53.416;6.730;2023-02-15T03:40:08;143.05;;;17.52;;
51981;SDS011;37998;53.416;6.730;2023-02-15T03:43:01;66.38;;;15.90;;
51981;SDS011;37998;53.416;6.730;2023-02-15T03:45:31;127.28;;;16.25;;
51981;SDS011;37998;53.416;6.730;2023-02-15T03:48:00;82.40;;;16.48;;
51981;SDS011;37998;53.416;6.730;2023-02-15T03:50:28;109.60;;;16.80;;
51981;SDS011;37998;53.416;6.730;2023-02-15T03:53:16;131.68;;;16.50;;
51981;SDS011;37998;53.416;6.730;2023-02-15T03:55:49;60.25;;;15.95;;
51981;SDS011;37998;53.416;6.730;2023-02-15T03:58:19;61.72;;;15.07;;
51981;SDS011;37998;53.416;6.730;2023-02-15T04:01:26;121.93;;;17.35;;
51981;SDS011;37998;53.416;6.730;2023-02-15T04:06:58;72.03;;;17.55;;
51981;SDS011;37998;53.416;6.730;2023-02-15T04:09:24;52.28;;;17.20;;
51981;SDS011;37998;53.416;6.730;2023-02-15T04:12:08;129.60;;;18.10;;
51981;SDS011;37998;53.416;6.730;2023-02-15T04:14:34;104.70;;;18.40;;
51981;SDS011;37998;53.416;6.730;2023-02-15T04:17:18;156.65;;;19.65;;
51981;SDS011;37998;53.416;6.730;2023-02-15T04:19:44;113.05;;;20.15;;
51981;SDS011;37998;53.416;6.730;2023-02-15T04:22:28;104.72;;;20.42;;
51981;SDS011;37998;53.416;6.730;2023-02-15T04:25:13;57.78;;;18.98;;
51981;SDS011;37998;53.416;6.730;2023-02-15T04:27:42;128.43;;;19.60;;
51981;SDS011;37998;53.416;6.730;2023-02-15T04:30:11;66.70;;;19.20;;
51981;SDS011;37998;53.416;6.730;2023-02-15T04:32:38;94.55;;;20.17;;
51981;SDS011;37998;53.416;6.730;2023-02-15T04:35:04;255.20;;;23.73;;
51981;SDS011;37998;53.416;6.730;2023-02-15T04:37:31;162.05;;;22.65;;
51981;SDS011;37998;53.416;6.730;2023-02-15T04:39:57;178.25;;;24.05;;
51981;SDS011;37998;53.416;6.730;2023-02-15T04:42:26;223.73;;;24.88;;
51981;SDS011;37998;53.416;6.730;2023-02-15T04:44:52;374.60;;;28.30;;
51981;SDS011;37998;53.416;6.730;2023-02-15T04:47:18;308.58;;;25.85;;
51981;SDS011;37998;53.416;6.730;2023-02-15T04:49:44;186.10;;;23.92;;
51981;SDS011;37998;53.416;6.730;2023-02-15T04:52:09;164.73;;;23.30;;
51981;SDS011;37998;53.416;6.730;2023-02-15T04:54:35;115.38;;;23.48;;
51981;SDS011;37998;53.416;6.730;2023-02-15T04:57:01;88.35;;;23.27;;
51981;SDS011;37998;53.416;6.730;2023-02-15T04:59:27;145.60;;;23.75;;
51981;SDS011;37998;53.416;6.730;2023-02-15T05:01:53;136.57;;;23.80;;
51981;SDS011;37998;53.416;6.730;2023-02-15T05:04:18;100.32;;;23.75;;
51981;SDS011;37998;53.416;6.730;2023-02-15T05:06:44;127.68;;;23.13;;
51981;SDS011;37998;53.416;6.730;2023-02-15T05:09:10;68.13;;;22.27;;
51981;SDS011;37998;53.416;6.730;2023-02-15T05:11:37;78.78;;;22.83;;
51981;SDS011;37998;53.416;6.730;2023-02-15T05:14:02;120.65;;;24.30;;
51981;SDS011;37998;53.416;6.730;2023-02-15T05:16:28;66.07;;;22.63;;
51981;SDS011;37998;53.416;6.730;2023-02-15T05:18:54;124.50;;;23.05;;
51981;SDS011;37998;53.416;6.730;2023-02-15T05:21:20;103.05;;;24.45;;
51981;SDS011;37998;53.416;6.730;2023-02-15T05:23:45;88.78;;;24.30;;
51981;SDS011;37998;53.416;6.730;2023-02-15T05:26:11;108.03;;;25.25;;
51981;SDS011;37998;53.416;6.730;2023-02-15T05:28:59;97.07;;;25.10;;
51981;SDS011;37998;53.416;6.730;2023-02-15T05:31:25;230.35;;;28.35;;
51981;SDS011;37998;53.416;6.730;2023-02-15T05:33:50;105.22;;;24.88;;
51981;SDS011;37998;53.416;6.730;2023-02-15T05:36:16;272.52;;;27.75;;
51981;SDS011;37998;53.416;6.730;2023-02-15T05:38:41;43.47;;;24.10;;
51981;SDS011;37998;53.416;6.730;2023-02-15T05:41:08;57.50;;;23.55;;
51981;SDS011;37998;53.416;6.730;2023-02-15T05:43:34;96.32;;;23.38;;
51981;SDS011;37998;53.416;6.730;2023-02-15T05:46:00;77.53;;;22.67;;
51981;SDS011;37998;53.416;6.730;2023-02-15T05:48:26;77.55;;;23.92;;
51981;SDS011;37998;53.416;6.730;2023-02-15T05:53:25;63.83;;;22.05;;
51981;SDS011;37998;53.416;6.730;2023-02-15T05:55:52;150.40;;;24.45;;
51981;SDS011;37998;53.416;6.730;2023-02-15T05:58:19;71.07;;;23.55;;
51981;SDS011;37998;53.416;6.730;2023-02-15T06:00:45;52.08;;;24.67;;
51981;SDS011;37998;53.416;6.730;2023-02-15T06:03:10;91.13;;;24.15;;
51981;SDS011;37998;53.416;6.730;2023-02-15T06:05:36;39.15;;;22.75;;
51981;SDS011;37998;53.416;6.730;2023-02-15T06:08:01;95.80;;;23.67;;
51981;SDS011;37998;53.416;6.730;2023-02-15T06:10:27;92.97;;;23.45;;
51981;SDS011;37998;53.416;6.730;2023-02-15T06:12:53;107.90;;;24.75;;
51981;SDS011;37998;53.416;6.730;2023-02-15T06:15:18;121.43;;;25.58;;
51981;SDS011;37998;53.416;6.730;2023-02-15T06:17:44;143.05;;;26.48;;
51981;SDS011;37998;53.416;6.730;2023-02-15T06:20:10;158.82;;;27.30;;
51981;SDS011;37998;53.416;6.730;2023-02-15T06:22:36;200.65;;;27.73;;
51981;SDS011;37998;53.416;6.730;2023-02-15T06:25:02;145.07;;;28.58;;
51981;SDS011;37998;53.416;6.730;2023-02-15T06:27:28;156.65;;;28.90;;
51981;SDS011;37998;53.416;6.730;2023-02-15T06:29:54;178.75;;;29.27;;
51981;SDS011;37998;53.416;6.730;2023-02-15T06:32:19;203.40;;;32.30;;
51981;SDS011;37998;53.416;6.730;2023-02-15T06:34:45;147.77;;;31.40;;
51981;SDS011;37998;53.416;6.730;2023-02-15T06:37:11;141.18;;;32.00;;
51981;SDS011;37998;53.416;6.730;2023-02-15T06:39:36;54.45;;;29.58;;
51981;SDS011;37998;53.416;6.730;2023-02-15T06:42:02;182.98;;;32.17;;
51981;SDS011;37998;53.416;6.730;2023-02-15T06:44:28;199.85;;;30.67;;
51981;SDS011;37998;53.416;6.730;2023-02-15T06:46:53;141.13;;;28.67;;
51981;SDS011;37998;53.416;6.730;2023-02-15T06:49:19;251.20;;;34.05;;
51981;SDS011;37998;53.416;6.730;2023-02-15T06:51:45;156.98;;;30.30;;
51981;SDS011;37998;53.416;6.730;2023-02-15T06:54:11;290.13;;;33.65;;
51981;SDS011;37998;53.416;6.730;2023-02-15T06:56:37;79.50;;;30.10;;
51981;SDS011;37998;53.416;6.730;2023-02-15T06:59:03;102.10;;;31.52;;
51981;SDS011;37998;53.416;6.730;2023-02-15T07:01:29;125.57;;;31.95;;
51981;SDS011;37998;53.416;6.730;2023-02-15T07:03:54;102.18;;;31.50;;
51981;SDS011;37998;53.416;6.730;2023-02-15T07:06:20;342.42;;;33.00;;
51981;SDS011;37998;53.416;6.730;2023-02-15T07:08:46;180.13;;;32.75;;
51981;SDS011;37998;53.416;6.730;2023-02-15T07:11:11;225.20;;;33.90;;
51981;SDS011;37998;53.416;6.730;2023-02-15T07:13:56;408.40;;;38.72;;
51981;SDS011;37998;53.416;6.730;2023-02-15T07:16:21;406.35;;;39.13;;
51981;SDS011;37998;53.416;6.730;2023-02-15T07:18:47;372.38;;;37.85;;
51981;SDS011;37998;53.416;6.730;2023-02-15T07:21:13;414.77;;;37.92;;
51981;SDS011;37998;53.416;6.730;2023-02-15T07:23:38;374.10;;;39.15;;
51981;SDS011;37998;53.416;6.730;2023-02-15T07:26:05;275.17;;;36.20;;
51981;SDS011;37998;53.416;6.730;2023-02-15T07:28:32;249.70;;;34.42;;
51981;SDS011;37998;53.416;6.730;2023-02-15T07:31:00;194.20;;;33.05;;
51981;SDS011;37998;53.416;6.730;2023-02-15T07:33:27;185.63;;;31.70;;
51981;SDS011;37998;53.416;6.730;2023-02-15T07:35:55;164.90;;;31.90;;
51981;SDS011;37998;53.416;6.730;2023-02-15T07:38:23;239.30;;;33.33;;
51981;SDS011;37998;53.416;6.730;2023-02-15T07:40:50;179.90;;;33.33;;
51981;SDS011;37998;53.416;6.730;2023-02-15T07:43:15;217.68;;;34.40;;
51981;SDS011;37998;53.416;6.730;2023-02-15T07:45:42;160.48;;;32.28;;
51981;SDS011;37998;53.416;6.730;2023-02-15T07:48:08;204.50;;;33.75;;
51981;SDS011;37998;53.416;6.730;2023-02-15T07:50:34;153.13;;;34.03;;
51981;SDS011;37998;53.416;6.730;2023-02-15T07:53:03;139.35;;;35.10;;
51981;SDS011;37998;53.416;6.730;2023-02-15T07:55:29;75.47;;;32.30;;
51981;SDS011;37998;53.416;6.730;2023-02-15T07:57:55;75.28;;;33.75;;
51981;SDS011;37998;53.416;6.730;2023-02-15T08:00:21;97.85;;;33.70;;
51981;SDS011;37998;53.416;6.730;2023-02-15T08:02:53;56.90;;;34.25;;
51981;SDS011;37998;53.416;6.730;2023-02-15T08:05:39;111.55;;;34.20;;
51981;SDS011;37998;53.416;6.730;2023-02-15T08:08:06;73.75;;;34.53;;
51981;SDS011;37998;53.416;6.730;2023-02-15T08:10:33;86.82;;;33.22;;
51981;SDS011;37998;53.416;6.730;2023-02-15T08:13:18;126.80;;;34.08;;
51981;SDS011;37998;53.416;6.730;2023-02-15T08:15:50;92.25;;;33.03;;
51981;SDS011;37998;53.416;6.730;2023-02-15T08:18:15;68.20;;;34.00;;
51981;SDS011;37998;53.416;6.730;2023-02-15T08:20:41;55.30;;;33.10;;
51981;SDS011;37998;53.416;6.730;2023-02-15T08:23:07;47.00;;;32.75;;
51981;SDS011;37998;53.416;6.730;2023-02-15T08:25:32;48.67;;;33.70;;
51981;SDS011;37998;53.416;6.730;2023-02-15T08:27:58;49.72;;;33.03;;
51981;SDS011;37998;53.416;6.730;2023-02-15T08:30:24;42.08;;;30.42;;
51981;SDS011;37998;53.416;6.730;2023-02-15T08:32:49;41.10;;;33.03;;
51981;SDS011;37998;53.416;6.730;2023-02-15T08:35:15;42.22;;;34.22;;
51981;SDS011;37998;53.416;6.730;2023-02-15T08:37:41;42.35;;;34.13;;
51981;SDS011;37998;53.416;6.730;2023-02-15T08:40:07;40.90;;;34.22;;
51981;SDS011;37998;53.416;6.730;2023-02-15T08:42:33;41.83;;;34.33;;
51981;SDS011;37998;53.416;6.730;2023-02-15T08:44:59;45.70;;;34.45;;
51981;SDS011;37998;53.416;6.730;2023-02-15T08:47:25;41.97;;;34.15;;
51981;SDS011;37998;53.416;6.730;2023-02-15T08:49:50;43.67;;;34.00;;
51981;SDS011;37998;53.416;6.730;2023-02-15T08:52:16;42.22;;;34.03;;
51981;SDS011;37998;53.416;6.730;2023-02-15T08:54:42;38.42;;;32.45;;
51981;SDS011;37998;53.416;6.730;2023-02-15T08:57:08;43.13;;;34.60;;
51981;SDS011;37998;53.416;6.730;2023-02-15T08:59:35;41.50;;;34.00;;
51981;SDS011;37998;53.416;6.730;2023-02-15T09:02:00;45.22;;;33.28;;
51981;SDS011;37998;53.416;6.730;2023-02-15T09:04:26;40.08;;;32.92;;
51981;SDS011;37998;53.416;6.730;2023-02-15T09:06:52;44.83;;;36.13;;
51981;SDS011;37998;53.416;6.730;2023-02-15T09:09:18;42.45;;;33.60;;
51981;SDS011;37998;53.416;6.730;2023-02-15T09:11:45;43.40;;;34.50;;
51981;SDS011;37998;53.416;6.730;2023-02-15T09:14:15;42.00;;;35.03;;
51981;SDS011;37998;53.416;6.730;2023-02-15T09:16:46;42.33;;;35.10;;
51981;SDS011;37998;53.416;6.730;2023-02-15T09:19:14;46.70;;;36.03;;
51981;SDS011;37998;53.416;6.730;2023-02-15T09:21:42;43.88;;;36.25;;
51981;SDS011;37998;53.416;6.730;2023-02-15T09:24:08;46.33;;;36.45;;
51981;SDS011;37998;53.416;6.730;2023-02-15T09:26:37;45.47;;;36.10;;
51981;SDS011;37998;53.416;6.730;2023-02-15T09:29:06;45.92;;;36.10;;
51981;SDS011;37998;53.416;6.730;2023-02-15T09:31:33;49.35;;;37.08;;
51981;SDS011;37998;53.416;6.730;2023-02-15T09:34:02;44.70;;;35.63;;
51981;SDS011;37998;53.416;6.730;2023-02-15T09:36:31;48.35;;;35.83;;
51981;SDS011;37998;53.416;6.730;2023-02-15T09:39:00;53.75;;;38.13;;
51981;SDS011;37998;53.416;6.730;2023-02-15T09:44:17;46.33;;;36.00;;
51981;SDS011;37998;53.416;6.730;2023-02-15T09:47:09;49.00;;;34.80;;
51981;SDS011;37998;53.416;6.730;2023-02-15T09:49:48;45.38;;;35.50;;
51981;SDS011;37998;53.416;6.730;2023-02-15T09:52:24;50.42;;;35.85;;
51981;SDS011;37998;53.416;6.730;2023-02-15T09:57:43;52.05;;;36.95;;
51981;SDS011;37998;53.416;6.730;2023-02-15T10:00:18;47.70;;;35.55;;
51981;SDS011;37998;53.416;6.730;2023-02-15T10:03:20;44.50;;;34.47;;
51981;SDS011;37998;53.416;6.730;2023-02-15T10:05:53;47.05;;;34.58;;
51981;SDS011;37998;53.416;6.730;2023-02-15T10:08:36;45.65;;;33.83;;
51981;SDS011;37998;53.416;6.730;2023-02-15T10:11:20;48.85;;;36.42;;
51981;SDS011;37998;53.416;6.730;2023-02-15T10:17:02;47.17;;;34.97;;
51981;SDS011;37998;53.416;6.730;2023-02-15T10:25:16;44.70;;;33.75;;
51981;SDS011;37998;53.416;6.730;2023-02-15T10:27:46;49.95;;;32.45;;
51981;SDS011;37998;53.416;6.730;2023-02-15T10:30:14;43.33;;;31.88;;
51981;SDS011;37998;53.416;6.730;2023-02-15T10:35:26;42.05;;;30.17;;
51981;SDS011;37998;53.416;6.730;2023-02-15T10:54:58;43.58;;;31.23;;
51981;SDS011;37998;53.416;6.730;2023-02-15T11:06:09;44.72;;;32.20;;
51981;SDS011;37998;53.416;6.730;2023-02-15T11:08:48;40.55;;;30.42;;
51981;SDS011;37998;53.416;6.730;2023-02-15T11:11:21;45.83;;;31.83;;
51981;SDS011;37998;53.416;6.730;2023-02-15T11:13:48;41.42;;;30.48;;
51981;SDS011;37998;53.416;6.730;2023-02-15T11:16:32;42.50;;;31.70;;
51981;SDS011;37998;53.416;6.730;2023-02-15T11:19:11;40.58;;;31.00;;
51981;SDS011;37998;53.416;6.730;2023-02-15T11:21:46;41.10;;;30.92;;
51981;SDS011;37998;53.416;6.730;2023-02-15T11:24:18;44.17;;;33.25;;
51981;SDS011;37998;53.416;6.730;2023-02-15T11:26:50;42.70;;;31.20;;
51981;SDS011;37998;53.416;6.730;2023-02-15T11:29:22;46.28;;;31.23;;
51981;SDS011;37998;53.416;6.730;2023-02-15T11:31:55;49.10;;;32.33;;
51981;SDS011;37998;53.416;6.730;2023-02-15T11:34:29;44.33;;;31.65;;
51981;SDS011;37998;53.416;6.730;2023-02-15T11:37:01;41.45;;;30.00;;
51981;SDS011;37998;53.416;6.730;2023-02-15T11:39:33;45.28;;;31.60;;
51981;SDS011;37998;53.416;6.730;2023-02-15T11:42:01;44.10;;;32.70;;
51981;SDS011;37998;53.416;6.730;2023-02-15T11:44:35;44.10;;;32.40;;
51981;SDS011;37998;53.416;6.730;2023-02-15T11:47:11;45.22;;;31.90;;
51981;SDS011;37998;53.416;6.730;2023-02-15T11:49:38;50.70;;;32.80;;
51981;SDS011;37998;53.416;6.730;2023-02-15T11:52:10;44.92;;;31.95;;
51981;SDS011;37998;53.416;6.730;2023-02-15T11:54:45;42.55;;;31.13;;
51981;SDS011;37998;53.416;6.730;2023-02-15T11:57:20;43.33;;;32.13;;
51981;SDS011;37998;53.416;6.730;2023-02-15T12:00:36;44.75;;;32.45;;
51981;SDS011;37998;53.416;6.730;2023-02-15T12:02:48;51.35;;;32.00;;
51981;SDS011;37998;53.416;6.730;2023-02-15T12:05:17;44.30;;;31.20;;
51981;SDS011;37998;53.416;6.730;2023-02-15T12:07:55;45.45;;;30.98;;
51981;SDS011;37998;53.416;6.730;2023-02-15T12:10:29;43.45;;;30.25;;
51981;SDS011;37998;53.416;6.730;2023-02-15T12:13:14;45.80;;;32.37;;
51981;SDS011;37998;53.416;6.730;2023-02-15T12:15:42;44.50;;;30.42;;
51981;SDS011;37998;53.416;6.730;2023-02-15T12:18:18;42.78;;;30.17;;
51981;SDS011;37998;53.416;6.730;2023-02-15T12:20:50;44.22;;;30.88;;
51981;SDS011;37998;53.416;6.730;2023-02-15T12:23:16;45.20;;;30.85;;
51981;SDS011;37998;53.416;6.730;2023-02-15T12:25:48;51.53;;;32.75;;
51981;SDS011;37998;53.416;6.730;2023-02-15T12:28:34;47.97;;;30.58;;
51981;SDS011;37998;53.416;6.730;2023-02-15T12:31:03;45.35;;;30.42;;
51981;SDS011;37998;53.416;6.730;2023-02-15T12:33:42;48.60;;;31.25;;
51981;SDS011;37998;53.416;6.730;2023-02-15T12:36:21;45.70;;;30.00;;
51981;SDS011;37998;53.416;6.730;2023-02-15T12:39:02;42.92;;;30.02;;
51981;SDS011;37998;53.416;6.730;2023-02-15T12:41:37;44.35;;;29.20;;
51981;SDS011;37998;53.416;6.730;2023-02-15T12:44:21;53.05;;;30.52;;
51981;SDS011;37998;53.416;6.730;2023-02-15T12:47:04;44.13;;;31.20;;
51981;SDS011;37998;53.416;6.730;2023-02-15T12:49:32;40.88;;;28.58;;
51981;SDS011;37998;53.416;6.730;2023-02-15T12:52:00;43.67;;;28.48;;
51981;SDS011;37998;53.416;6.730;2023-02-15T12:54:35;45.83;;;30.48;;
51981;SDS011;37998;53.416;6.730;2023-02-15T12:57:13;48.60;;;31.33;;
51981;SDS011;37998;53.416;6.730;2023-02-15T13:00:26;48.97;;;30.85;;
51981;SDS011;37998;53.416;6.730;2023-02-15T13:02:57;47.63;;;30.45;;
51981;SDS011;37998;53.416;6.730;2023-02-15T13:05:34;50.25;;;29.95;;
51981;SDS011;37998;53.416;6.730;2023-02-15T13:08:11;47.70;;;30.00;;
51981;SDS011;37998;53.416;6.730;2023-02-15T13:11:08;44.58;;;30.65;;
51981;SDS011;37998;53.416;6.730;2023-02-15T13:16:34;41.83;;;28.80;;
51981;SDS011;37998;53.416;6.730;2023-02-15T13:19:10;43.42;;;28.27;;
51981;SDS011;37998;53.416;6.730;2023-02-15T13:21:43;45.67;;;28.65;;
51981;SDS011;37998;53.416;6.730;2023-02-15T13:24:18;48.00;;;30.58;;
51981;SDS011;37998;53.416;6.730;2023-02-15T13:26:49;43.92;;;29.48;;
51981;SDS011;37998;53.416;6.730;2023-02-15T13:29:26;44.92;;;29.83;;
51981;SDS011;37998;53.416;6.730;2023-02-15T13:31:56;41.38;;;29.17;;
51981;SDS011;37998;53.416;6.730;2023-02-15T13:34:36;48.13;;;29.83;;
51981;SDS011;37998;53.416;6.730;2023-02-15T13:44:54;45.30;;;30.10;;
51981;SDS011;37998;53.416;6.730;2023-02-15T13:50:19;50.30;;;30.15;;
51981;SDS011;37998;53.416;6.730;2023-02-15T14:01:57;44.88;;;30.98;;
51981;SDS011;37998;53.416;6.730;2023-02-15T14:10:02;51.33;;;31.50;;
51981;SDS011;37998;53.416;6.730;2023-02-15T14:21:08;51.33;;;31.52;;
51981;SDS011;37998;53.416;6.730;2023-02-15T14:32:19;50.83;;;33.72;;
51981;SDS011;37998;53.416;6.730;2023-02-15T14:34:59;56.13;;;33.38;;
51981;SDS011;37998;53.416;6.730;2023-02-15T14:45:54;52.55;;;34.28;;
51981;SDS011;37998;53.416;6.730;2023-02-15T14:50:54;48.70;;;32.78;;
51981;SDS011;37998;53.416;6.730;2023-02-15T14:56:05;49.50;;;33.40;;
51981;SDS011;37998;53.416;6.730;2023-02-15T14:58:32;51.58;;;34.20;;
51981;SDS011;37998;53.416;6.730;2023-02-15T15:01:07;51.92;;;34.17;;
51981;SDS011;37998;53.416;6.730;2023-02-15T15:03:34;49.70;;;33.58;;
51981;SDS011;37998;53.416;6.730;2023-02-15T15:06:01;51.45;;;33.40;;
51981;SDS011;37998;53.416;6.730;2023-02-15T15:08:37;46.88;;;33.13;;
51981;SDS011;37998;53.416;6.730;2023-02-15T15:16:59;51.28;;;33.05;;
51981;SDS011;37998;53.416;6.730;2023-02-15T15:22:25;52.08;;;34.03;;
51981;SDS011;37998;53.416;6.730;2023-02-15T15:35:23;46.45;;;33.65;;
51981;SDS011;37998;53.416;6.730;2023-02-15T15:43:41;54.28;;;34.78;;
51981;SDS011;37998;53.416;6.730;2023-02-15T15:49:01;50.75;;;34.60;;
51981;SDS011;37998;53.416;6.730;2023-02-15T15:51:32;54.20;;;36.03;;
51981;SDS011;37998;53.416;6.730;2023-02-15T15:53:58;49.83;;;33.78;;
51981;SDS011;37998;53.416;6.730;2023-02-15T15:56:28;49.08;;;34.22;;
51981;SDS011;37998;53.416;6.730;2023-02-15T15:59:06;54.58;;;33.97;;
51981;SDS011;37998;53.416;6.730;2023-02-15T16:01:44;46.05;;;32.42;;
51981;SDS011;37998;53.416;6.730;2023-02-15T16:04:14;45.90;;;31.83;;
51981;SDS011;37998;53.416;6.730;2023-02-15T16:06:51;51.00;;;33.97;;
51981;SDS011;37998;53.416;6.730;2023-02-15T16:09:21;48.38;;;31.15;;
51981;SDS011;37998;53.416;6.730;2023-02-15T16:11:50;44.65;;;32.13;;
51981;SDS011;37998;53.416;6.730;2023-02-15T16:14:29;46.25;;;30.60;;
51981;SDS011;37998;53.416;6.730;2023-02-15T16:16:56;44.88;;;30.95;;
51981;SDS011;37998;53.416;6.730;2023-02-15T16:19:32;48.05;;;33.60;;
51981;SDS011;37998;53.416;6.730;2023-02-15T16:21:59;52.28;;;34.97;;
51981;SDS011;37998;53.416;6.730;2023-02-15T16:27:32;49.90;;;33.13;;
51981;SDS011;37998;53.416;6.730;2023-02-15T16:33:11;48.50;;;32.67;;
51981;SDS011;37998;53.416;6.730;2023-02-15T16:35:52;45.53;;;31.52;;
51981;SDS011;37998;53.416;6.730;2023-02-15T16:38:51;48.85;;;32.58;;
51981;SDS011;37998;53.416;6.730;2023-02-15T16:43:54;42.03;;;30.65;;
51981;SDS011;37998;53.416;6.730;2023-02-15T16:46:36;46.78;;;32.00;;
51981;SDS011;37998;53.416;6.730;2023-02-15T16:49:16;48.10;;;33.03;;
51981;SDS011;37998;53.416;6.730;2023-02-15T16:51:54;48.08;;;31.13;;
51981;SDS011;37998;53.416;6.730;2023-02-15T16:54:30;46.45;;;30.92;;
51981;SDS011;37998;53.416;6.730;2023-02-15T16:56:56;44.20;;;29.40;;
51981;SDS011;37998;53.416;6.730;2023-02-15T16:59:33;47.75;;;32.20;;
51981;SDS011;37998;53.416;6.730;2023-02-15T17:02:14;44.15;;;30.20;;
51981;SDS011;37998;53.416;6.730;2023-02-15T17:04:42;45.95;;;31.17;;
51981;SDS011;37998;53.416;6.730;2023-02-15T17:07:18;47.00;;;32.15;;
51981;SDS011;37998;53.416;6.730;2023-02-15T17:09:48;45.72;;;30.05;;
51981;SDS011;37998;53.416;6.730;2023-02-15T17:15:35;45.45;;;30.60;;
51981;SDS011;37998;53.416;6.730;2023-02-15T17:18:03;49.55;;;31.50;;
51981;SDS011;37998;53.416;6.730;2023-02-15T17:20:34;48.00;;;31.83;;
51981;SDS011;37998;53.416;6.730;2023-02-15T17:23:03;49.67;;;32.75;;
51981;SDS011;37998;53.416;6.730;2023-02-15T17:25:39;48.10;;;31.80;;
51981;SDS011;37998;53.416;6.730;2023-02-15T17:28:15;41.17;;;30.98;;
51981;SDS011;37998;53.416;6.730;2023-02-15T17:30:43;60.83;;;41.33;;
51981;SDS011;37998;53.416;6.730;2023-02-15T17:33:35;53.50;;;38.00;;
51981;SDS011;37998;53.416;6.730;2023-02-15T17:41:25;49.25;;;32.95;;